sensor_id;sensor_type;location;lat;lon;timestamp;P1;durP1;ratioP1;P2;durP2;ratioP2
58208;SDS011;44006;52.028;4.696;2024-01-10T00:00:28;4.78;;;2.60;;
58208;SDS011;44006;52.028;4.696;2024-01-10T00:02:53;6.68;;;2.90;;
58208;SDS011;44006;52.028;4.696;2024-01-10T00:05:18;7.15;;;2.97;;
58208;SDS011;44006;52.028;4.696;2024-01-10T00:07:44;6.20;;;3.08;;
58208;SDS011;44006;52.028;4.696;2024-01-10T00:10:10;5.15;;;2.72;;
58208;SDS011;44006;52.028;4.696;2024-01-10T00:12:35;6.10;;;3.10;;
58208;SDS011;44006;52.028;4.696;2024-01-10T00:15:04;6.72;;;2.88;;
58208;SDS011;44006;52.028;4.696;2024-01-10T00:17:30;6.22;;;2.90;;
58208;SDS011;44006;52.028;4.696;2024-01-10T00:19:56;7.53;;;3.17;;
58208;SDS011;44006;52.028;4.696;2024-01-10T00:22:21;6.00;;;3.20;;
58208;SDS011;44006;52.028;4.696;2024-01-10T00:24:46;7.13;;;3.00;;
58208;SDS011;44006;52.028;4.696;2024-01-10T00:27:12;7.85;;;3.28;;
58208;SDS011;44006;52.028;4.696;2024-01-10T00:29:38;7.03;;;3.60;;
58208;SDS011;44006;52.028;4.696;2024-01-10T00:32:03;6.53;;;3.50;;
58208;SDS011;44006;52.028;4.696;2024-01-10T00:34:29;8.27;;;3.30;;
58208;SDS011;44006;52.028;4.696;2024-01-10T00:36:54;6.80;;;3.38;;
58208;SDS011;44006;52.028;4.696;2024-01-10T00:39:19;6.07;;;3.03;;
58208;SDS011;44006;52.028;4.696;2024-01-10T00:41:46;8.88;;;3.50;;
58208;SDS011;44006;52.028;4.696;2024-01-10T00:44:11;5.28;;;3.15;;
58208;SDS011;44006;52.028;4.696;2024-01-10T00:46:37;6.13;;;3.08;;
58208;SDS011;44006;52.028;4.696;2024-01-10T00:49:03;7.35;;;3.22;;
58208;SDS011;44006;52.028;4.696;2024-01-10T00:51:28;7.40;;;3.70;;
58208;SDS011;44006;52.028;4.696;2024-01-10T00:53:53;6.10;;;3.30;;
58208;SDS011;44006;52.028;4.696;2024-01-10T00:56:19;7.70;;;3.33;;
58208;SDS011;44006;52.028;4.696;2024-01-10T00:58:44;8.93;;;4.05;;
58208;SDS011;44006;52.028;4.696;2024-01-10T01:01:09;7.95;;;4.03;;
58208;SDS011;44006;52.028;4.696;2024-01-10T01:03:35;8.73;;;3.88;;
58208;SDS011;44006;52.028;4.696;2024-01-10T01:06:01;10.05;;;4.28;;
58208;SDS011;44006;52.028;4.696;2024-01-10T01:08:26;10.02;;;4.63;;
58208;SDS011;44006;52.028;4.696;2024-01-10T01:10:52;8.38;;;4.25;;
58208;SDS011;44006;52.028;4.696;2024-01-10T01:13:17;6.10;;;3.63;;
58208;SDS011;44006;52.028;4.696;2024-01-10T01:15:43;9.57;;;4.45;;
58208;SDS011;44006;52.028;4.696;2024-01-10T01:18:08;6.80;;;3.75;;
58208;SDS011;44006;52.028;4.696;2024-01-10T01:20:35;9.38;;;4.03;;
58208;SDS011;44006;52.028;4.696;2024-01-10T01:23:00;7.13;;;3.58;;
58208;SDS011;44006;52.028;4.696;2024-01-10T01:25:25;6.20;;;3.38;;
58208;SDS011;44006;52.028;4.696;2024-01-10T01:27:53;6.85;;;3.53;;
58208;SDS011;44006;52.028;4.696;2024-01-10T01:30:19;6.57;;;3.40;;
58208;SDS011;44006;52.028;4.696;2024-01-10T01:32:46;6.18;;;3.70;;
58208;SDS011;44006;52.028;4.696;2024-01-10T01:35:12;6.53;;;3.33;;
58208;SDS011;44006;52.028;4.696;2024-01-10T01:37:38;8.40;;;3.72;;
58208;SDS011;44006;52.028;4.696;2024-01-10T01:40:03;9.15;;;3.72;;
58208;SDS011;44006;52.028;4.696;2024-01-10T01:42:30;7.55;;;3.38;;
58208;SDS011;44006;52.028;4.696;2024-01-10T01:44:56;6.63;;;3.58;;
58208;SDS011;44006;52.028;4.696;2024-01-10T01:47:22;5.35;;;3.28;;
58208;SDS011;44006;52.028;4.696;2024-01-10T01:49:48;6.05;;;3.47;;
58208;SDS011;44006;52.028;4.696;2024-01-10T01:52:13;5.95;;;3.50;;
58208;SDS011;44006;52.028;4.696;2024-01-10T01:54:38;7.07;;;3.50;;
58208;SDS011;44006;52.028;4.696;2024-01-10T01:57:04;6.05;;;3.40;;
58208;SDS011;44006;52.028;4.696;2024-01-10T01:59:30;6.75;;;3.60;;
58208;SDS011;44006;52.028;4.696;2024-01-10T02:01:55;8.65;;;3.88;;
58208;SDS011;44006;52.028;4.696;2024-01-10T02:04:23;7.03;;;3.20;;
58208;SDS011;44006;52.028;4.696;2024-01-10T02:06:48;7.32;;;3.58;;
58208;SDS011;44006;52.028;4.696;2024-01-10T02:09:15;6.88;;;3.40;;
58208;SDS011;44006;52.028;4.696;2024-01-10T02:11:40;7.13;;;3.35;;
58208;SDS011;44006;52.028;4.696;2024-01-10T02:14:05;6.07;;;3.30;;
58208;SDS011;44006;52.028;4.696;2024-01-10T02:16:31;6.55;;;3.50;;
58208;SDS011;44006;52.028;4.696;2024-01-10T02:18:56;7.28;;;3.42;;
58208;SDS011;44006;52.028;4.696;2024-01-10T02:21:22;8.45;;;3.72;;
58208;SDS011;44006;52.028;4.696;2024-01-10T02:23:48;6.05;;;3.70;;
58208;SDS011;44006;52.028;4.696;2024-01-10T02:26:14;8.20;;;4.13;;
58208;SDS011;44006;52.028;4.696;2024-01-10T02:28:39;5.70;;;3.42;;
58208;SDS011;44006;52.028;4.696;2024-01-10T02:31:06;8.65;;;3.90;;
58208;SDS011;44006;52.028;4.696;2024-01-10T02:33:32;6.72;;;3.72;;
58208;SDS011;44006;52.028;4.696;2024-01-10T02:35:57;7.57;;;3.88;;
58208;SDS011;44006;52.028;4.696;2024-01-10T02:38:23;6.47;;;3.70;;
58208;SDS011;44006;52.028;4.696;2024-01-10T02:40:49;7.95;;;4.22;;
58208;SDS011;44006;52.028;4.696;2024-01-10T02:43:14;8.43;;;4.05;;
58208;SDS011;44006;52.028;4.696;2024-01-10T02:45:39;9.75;;;4.35;;
58208;SDS011;44006;52.028;4.696;2024-01-10T02:48:05;6.75;;;3.95;;
58208;SDS011;44006;52.028;4.696;2024-01-10T02:50:30;9.30;;;5.13;;
58208;SDS011;44006;52.028;4.696;2024-01-10T02:52:55;10.25;;;3.95;;
58208;SDS011;44006;52.028;4.696;2024-01-10T02:55:20;6.75;;;3.95;;
58208;SDS011;44006;52.028;4.696;2024-01-10T02:57:46;8.85;;;4.95;;
58208;SDS011;44006;52.028;4.696;2024-01-10T03:00:12;8.20;;;4.50;;
58208;SDS011;44006;52.028;4.696;2024-01-10T03:02:38;8.50;;;4.88;;
58208;SDS011;44006;52.028;4.696;2024-01-10T03:05:03;8.60;;;4.93;;
58208;SDS011;44006;52.028;4.696;2024-01-10T03:07:29;9.55;;;5.07;;
58208;SDS011;44006;52.028;4.696;2024-01-10T03:09:54;7.82;;;4.85;;
58208;SDS011;44006;52.028;4.696;2024-01-10T03:12:19;10.30;;;4.70;;
58208;SDS011;44006;52.028;4.696;2024-01-10T03:14:45;12.85;;;5.18;;
58208;SDS011;44006;52.028;4.696;2024-01-10T03:17:10;10.95;;;5.20;;
58208;SDS011;44006;52.028;4.696;2024-01-10T03:19:35;8.95;;;5.20;;
58208;SDS011;44006;52.028;4.696;2024-01-10T03:22:02;9.02;;;5.10;;
58208;SDS011;44006;52.028;4.696;2024-01-10T03:24:27;9.95;;;5.32;;
58208;SDS011;44006;52.028;4.696;2024-01-10T03:26:53;8.85;;;5.07;;
58208;SDS011;44006;52.028;4.696;2024-01-10T03:29:18;9.95;;;5.30;;
58208;SDS011;44006;52.028;4.696;2024-01-10T03:31:43;10.10;;;5.43;;
58208;SDS011;44006;52.028;4.696;2024-01-10T03:34:08;9.05;;;5.47;;
58208;SDS011;44006;52.028;4.696;2024-01-10T03:36:36;10.20;;;5.35;;
58208;SDS011;44006;52.028;4.696;2024-01-10T03:39:01;9.88;;;5.53;;
58208;SDS011;44006;52.028;4.696;2024-01-10T03:41:26;8.15;;;4.72;;
58208;SDS011;44006;52.028;4.696;2024-01-10T03:43:51;8.50;;;5.03;;
58208;SDS011;44006;52.028;4.696;2024-01-10T03:46:17;9.32;;;5.03;;
58208;SDS011;44006;52.028;4.696;2024-01-10T03:48:43;11.18;;;5.40;;
58208;SDS011;44006;52.028;4.696;2024-01-10T03:51:15;10.82;;;5.50;;
58208;SDS011;44006;52.028;4.696;2024-01-10T03:53:41;7.95;;;5.03;;
58208;SDS011;44006;52.028;4.696;2024-01-10T03:56:06;8.02;;;5.15;;
58208;SDS011;44006;52.028;4.696;2024-01-10T03:58:31;9.90;;;5.32;;
58208;SDS011;44006;52.028;4.696;2024-01-10T04:00:57;11.15;;;5.50;;
58208;SDS011;44006;52.028;4.696;2024-01-10T04:03:22;11.73;;;5.57;;
58208;SDS011;44006;52.028;4.696;2024-01-10T04:05:47;8.95;;;5.07;;
58208;SDS011;44006;52.028;4.696;2024-01-10T04:08:13;8.07;;;4.65;;
58208;SDS011;44006;52.028;4.696;2024-01-10T04:10:38;8.70;;;4.90;;
58208;SDS011;44006;52.028;4.696;2024-01-10T04:13:03;10.27;;;5.40;;
58208;SDS011;44006;52.028;4.696;2024-01-10T04:15:29;9.60;;;5.30;;
58208;SDS011;44006;52.028;4.696;2024-01-10T04:17:54;8.93;;;5.15;;
58208;SDS011;44006;52.028;4.696;2024-01-10T04:20:19;9.60;;;4.97;;
58208;SDS011;44006;52.028;4.696;2024-01-10T04:22:44;8.68;;;5.25;;
58208;SDS011;44006;52.028;4.696;2024-01-10T04:25:10;10.75;;;5.55;;
58208;SDS011;44006;52.028;4.696;2024-01-10T04:27:36;12.25;;;5.28;;
58208;SDS011;44006;52.028;4.696;2024-01-10T04:30:01;10.73;;;4.82;;
58208;SDS011;44006;52.028;4.696;2024-01-10T04:32:26;10.10;;;5.47;;
58208;SDS011;44006;52.028;4.696;2024-01-10T04:34:52;8.57;;;4.90;;
58208;SDS011;44006;52.028;4.696;2024-01-10T04:37:18;9.77;;;4.85;;
58208;SDS011;44006;52.028;4.696;2024-01-10T04:39:43;9.63;;;5.15;;
58208;SDS011;44006;52.028;4.696;2024-01-10T04:42:09;9.52;;;5.25;;
58208;SDS011;44006;52.028;4.696;2024-01-10T04:44:35;8.85;;;5.45;;
58208;SDS011;44006;52.028;4.696;2024-01-10T04:47:00;9.32;;;5.00;;
58208;SDS011;44006;52.028;4.696;2024-01-10T04:49:26;8.63;;;5.10;;
58208;SDS011;44006;52.028;4.696;2024-01-10T04:51:51;9.23;;;4.90;;
58208;SDS011;44006;52.028;4.696;2024-01-10T04:54:16;8.90;;;4.85;;
58208;SDS011;44006;52.028;4.696;2024-01-10T04:56:42;9.70;;;5.18;;
58208;SDS011;44006;52.028;4.696;2024-01-10T04:59:07;7.75;;;4.78;;
58208;SDS011;44006;52.028;4.696;2024-01-10T05:01:33;8.65;;;5.00;;
58208;SDS011;44006;52.028;4.696;2024-01-10T05:03:58;8.15;;;4.60;;
58208;SDS011;44006;52.028;4.696;2024-01-10T05:06:25;9.02;;;4.95;;
58208;SDS011;44006;52.028;4.696;2024-01-10T05:08:51;8.50;;;4.97;;
58208;SDS011;44006;52.028;4.696;2024-01-10T05:11:16;11.30;;;5.10;;
58208;SDS011;44006;52.028;4.696;2024-01-10T05:13:42;10.23;;;5.10;;
58208;SDS011;44006;52.028;4.696;2024-01-10T05:16:07;8.40;;;4.78;;
58208;SDS011;44006;52.028;4.696;2024-01-10T05:18:33;8.40;;;5.45;;
58208;SDS011;44006;52.028;4.696;2024-01-10T05:20:58;9.45;;;5.20;;
58208;SDS011;44006;52.028;4.696;2024-01-10T05:23:24;9.70;;;5.22;;
58208;SDS011;44006;52.028;4.696;2024-01-10T05:25:49;9.82;;;5.32;;
58208;SDS011;44006;52.028;4.696;2024-01-10T05:28:17;9.23;;;4.82;;
58208;SDS011;44006;52.028;4.696;2024-01-10T05:30:45;9.38;;;5.10;;
58208;SDS011;44006;52.028;4.696;2024-01-10T05:33:10;9.93;;;5.32;;
58208;SDS011;44006;52.028;4.696;2024-01-10T05:35:38;10.73;;;5.00;;
58208;SDS011;44006;52.028;4.696;2024-01-10T05:38:03;9.38;;;5.20;;
58208;SDS011;44006;52.028;4.696;2024-01-10T05:40:29;8.70;;;5.35;;
58208;SDS011;44006;52.028;4.696;2024-01-10T05:42:57;13.65;;;5.40;;
58208;SDS011;44006;52.028;4.696;2024-01-10T05:45:25;9.38;;;5.45;;
58208;SDS011;44006;52.028;4.696;2024-01-10T05:47:51;9.68;;;5.47;;
58208;SDS011;44006;52.028;4.696;2024-01-10T05:50:18;9.77;;;5.25;;
58208;SDS011;44006;52.028;4.696;2024-01-10T05:52:45;11.77;;;5.57;;
58208;SDS011;44006;52.028;4.696;2024-01-10T05:55:10;13.77;;;5.57;;
58208;SDS011;44006;52.028;4.696;2024-01-10T05:57:38;10.60;;;5.38;;
58208;SDS011;44006;52.028;4.696;2024-01-10T06:00:04;11.90;;;6.10;;
58208;SDS011;44006;52.028;4.696;2024-01-10T06:02:30;8.90;;;5.60;;
58208;SDS011;44006;52.028;4.696;2024-01-10T06:04:55;10.80;;;5.97;;
58208;SDS011;44006;52.028;4.696;2024-01-10T06:07:20;9.85;;;5.80;;
58208;SDS011;44006;52.028;4.696;2024-01-10T06:09:46;11.95;;;5.95;;
58208;SDS011;44006;52.028;4.696;2024-01-10T06:12:11;10.00;;;5.38;;
58208;SDS011;44006;52.028;4.696;2024-01-10T06:14:36;9.65;;;5.40;;
58208;SDS011;44006;52.028;4.696;2024-01-10T06:17:04;9.93;;;6.20;;
58208;SDS011;44006;52.028;4.696;2024-01-10T06:19:30;12.15;;;5.82;;
58208;SDS011;44006;52.028;4.696;2024-01-10T06:21:58;12.30;;;6.22;;
58208;SDS011;44006;52.028;4.696;2024-01-10T06:24:24;10.85;;;6.35;;
58208;SDS011;44006;52.028;4.696;2024-01-10T06:26:50;10.27;;;5.88;;
58208;SDS011;44006;52.028;4.696;2024-01-10T06:29:15;10.55;;;6.13;;
58208;SDS011;44006;52.028;4.696;2024-01-10T06:31:41;11.07;;;5.85;;
58208;SDS011;44006;52.028;4.696;2024-01-10T06:34:07;10.50;;;6.32;;
58208;SDS011;44006;52.028;4.696;2024-01-10T06:36:33;12.10;;;6.35;;
58208;SDS011;44006;52.028;4.696;2024-01-10T06:38:58;11.23;;;6.53;;
58208;SDS011;44006;52.028;4.696;2024-01-10T06:41:24;10.80;;;6.45;;
58208;SDS011;44006;52.028;4.696;2024-01-10T06:43:53;10.05;;;6.30;;
58208;SDS011;44006;52.028;4.696;2024-01-10T06:46:19;11.85;;;6.53;;
58208;SDS011;44006;52.028;4.696;2024-01-10T06:48:45;12.52;;;6.57;;
58208;SDS011;44006;52.028;4.696;2024-01-10T06:51:14;12.10;;;6.68;;
58208;SDS011;44006;52.028;4.696;2024-01-10T06:53:39;13.15;;;7.03;;
58208;SDS011;44006;52.028;4.696;2024-01-10T06:56:05;12.38;;;6.40;;
58208;SDS011;44006;52.028;4.696;2024-01-10T06:58:31;10.57;;;5.80;;
58208;SDS011;44006;52.028;4.696;2024-01-10T07:00:57;11.85;;;6.00;;
58208;SDS011;44006;52.028;4.696;2024-01-10T07:03:23;11.95;;;6.65;;
58208;SDS011;44006;52.028;4.696;2024-01-10T07:05:50;13.70;;;6.40;;
58208;SDS011;44006;52.028;4.696;2024-01-10T07:08:15;12.45;;;6.00;;
58208;SDS011;44006;52.028;4.696;2024-01-10T07:10:42;9.85;;;5.80;;
58208;SDS011;44006;52.028;4.696;2024-01-10T07:13:08;9.70;;;5.47;;
58208;SDS011;44006;52.028;4.696;2024-01-10T07:15:33;9.90;;;5.78;;
58208;SDS011;44006;52.028;4.696;2024-01-10T07:17:58;9.02;;;5.78;;
58208;SDS011;44006;52.028;4.696;2024-01-10T07:20:24;11.18;;;5.65;;
58208;SDS011;44006;52.028;4.696;2024-01-10T07:22:50;11.50;;;5.75;;
58208;SDS011;44006;52.028;4.696;2024-01-10T07:25:16;12.15;;;6.30;;
58208;SDS011;44006;52.028;4.696;2024-01-10T07:27:43;11.00;;;5.60;;
58208;SDS011;44006;52.028;4.696;2024-01-10T07:30:09;10.35;;;5.97;;
58208;SDS011;44006;52.028;4.696;2024-01-10T07:32:52;10.30;;;5.90;;
58208;SDS011;44006;52.028;4.696;2024-01-10T07:35:17;9.40;;;5.47;;
58208;SDS011;44006;52.028;4.696;2024-01-10T07:37:43;10.52;;;5.75;;
58208;SDS011;44006;52.028;4.696;2024-01-10T07:40:09;10.07;;;6.10;;
58208;SDS011;44006;52.028;4.696;2024-01-10T07:42:37;11.82;;;5.90;;
58208;SDS011;44006;52.028;4.696;2024-01-10T07:45:02;11.07;;;5.32;;
58208;SDS011;44006;52.028;4.696;2024-01-10T07:47:31;12.15;;;5.78;;
58208;SDS011;44006;52.028;4.696;2024-01-10T07:49:56;10.45;;;5.35;;
58208;SDS011;44006;52.028;4.696;2024-01-10T07:52:22;10.13;;;5.82;;
58208;SDS011;44006;52.028;4.696;2024-01-10T07:54:47;11.57;;;6.22;;
58208;SDS011;44006;52.028;4.696;2024-01-10T07:57:13;11.10;;;6.47;;
58208;SDS011;44006;52.028;4.696;2024-01-10T07:59:39;12.98;;;7.10;;
58208;SDS011;44006;52.028;4.696;2024-01-10T08:02:05;11.25;;;6.10;;
58208;SDS011;44006;52.028;4.696;2024-01-10T08:04:31;13.23;;;5.90;;
58208;SDS011;44006;52.028;4.696;2024-01-10T08:06:56;11.50;;;6.03;;
58208;SDS011;44006;52.028;4.696;2024-01-10T08:09:22;11.82;;;5.80;;
58208;SDS011;44006;52.028;4.696;2024-01-10T08:11:49;12.98;;;5.45;;
58208;SDS011;44006;52.028;4.696;2024-01-10T08:14:15;8.57;;;5.15;;
58208;SDS011;44006;52.028;4.696;2024-01-10T08:16:41;11.82;;;6.00;;
58208;SDS011;44006;52.028;4.696;2024-01-10T08:19:07;11.68;;;5.20;;
58208;SDS011;44006;52.028;4.696;2024-01-10T08:21:32;10.35;;;5.38;;
58208;SDS011;44006;52.028;4.696;2024-01-10T08:23:57;13.48;;;5.97;;
58208;SDS011;44006;52.028;4.696;2024-01-10T08:26:22;10.93;;;5.60;;
58208;SDS011;44006;52.028;4.696;2024-01-10T08:28:48;12.90;;;5.70;;
58208;SDS011;44006;52.028;4.696;2024-01-10T08:31:16;11.55;;;5.35;;
58208;SDS011;44006;52.028;4.696;2024-01-10T08:33:43;12.77;;;5.65;;
58208;SDS011;44006;52.028;4.696;2024-01-10T08:36:12;8.55;;;4.95;;
58208;SDS011;44006;52.028;4.696;2024-01-10T08:38:38;9.57;;;5.22;;
58208;SDS011;44006;52.028;4.696;2024-01-10T08:41:04;10.27;;;5.45;;
58208;SDS011;44006;52.028;4.696;2024-01-10T08:43:29;10.05;;;5.45;;
58208;SDS011;44006;52.028;4.696;2024-01-10T08:45:55;13.48;;;6.28;;
58208;SDS011;44006;52.028;4.696;2024-01-10T08:48:22;10.45;;;5.82;;
58208;SDS011;44006;52.028;4.696;2024-01-10T08:50:48;11.23;;;5.60;;
58208;SDS011;44006;52.028;4.696;2024-01-10T08:53:13;11.20;;;5.10;;
58208;SDS011;44006;52.028;4.696;2024-01-10T08:55:40;10.82;;;5.63;;
58208;SDS011;44006;52.028;4.696;2024-01-10T08:58:05;9.18;;;5.38;;
58208;SDS011;44006;52.028;4.696;2024-01-10T09:00:30;11.73;;;5.97;;
58208;SDS011;44006;52.028;4.696;2024-01-10T09:02:56;12.13;;;5.60;;
58208;SDS011;44006;52.028;4.696;2024-01-10T09:05:21;10.02;;;5.55;;
58208;SDS011;44006;52.028;4.696;2024-01-10T09:07:47;9.07;;;4.78;;
58208;SDS011;44006;52.028;4.696;2024-01-10T09:10:12;11.82;;;5.30;;
58208;SDS011;44006;52.028;4.696;2024-01-10T09:12:38;12.60;;;5.43;;
58208;SDS011;44006;52.028;4.696;2024-01-10T09:15:03;12.10;;;5.57;;
58208;SDS011;44006;52.028;4.696;2024-01-10T09:17:31;11.35;;;5.63;;
58208;SDS011;44006;52.028;4.696;2024-01-10T09:19:56;13.48;;;5.72;;
58208;SDS011;44006;52.028;4.696;2024-01-10T09:22:22;11.60;;;5.55;;
58208;SDS011;44006;52.028;4.696;2024-01-10T09:24:48;11.25;;;5.68;;
58208;SDS011;44006;52.028;4.696;2024-01-10T09:27:13;11.27;;;5.60;;
58208;SDS011;44006;52.028;4.696;2024-01-10T09:29:39;10.00;;;5.28;;
58208;SDS011;44006;52.028;4.696;2024-01-10T09:32:06;10.65;;;5.30;;
58208;SDS011;44006;52.028;4.696;2024-01-10T09:34:31;10.88;;;5.35;;
58208;SDS011;44006;52.028;4.696;2024-01-10T09:36:58;12.48;;;5.28;;
58208;SDS011;44006;52.028;4.696;2024-01-10T09:39:23;10.52;;;5.22;;
58208;SDS011;44006;52.028;4.696;2024-01-10T09:41:51;9.07;;;5.13;;
58208;SDS011;44006;52.028;4.696;2024-01-10T09:44:17;12.82;;;5.63;;
58208;SDS011;44006;52.028;4.696;2024-01-10T09:46:45;11.73;;;5.40;;
58208;SDS011;44006;52.028;4.696;2024-01-10T09:49:11;11.40;;;5.35;;
58208;SDS011;44006;52.028;4.696;2024-01-10T09:51:36;10.95;;;5.35;;
58208;SDS011;44006;52.028;4.696;2024-01-10T09:54:02;10.77;;;5.97;;
58208;SDS011;44006;52.028;4.696;2024-01-10T09:56:29;13.27;;;5.97;;
58208;SDS011;44006;52.028;4.696;2024-01-10T09:58:55;11.25;;;5.45;;
58208;SDS011;44006;52.028;4.696;2024-01-10T10:01:21;11.40;;;5.57;;
58208;SDS011;44006;52.028;4.696;2024-01-10T10:03:47;12.00;;;5.45;;
58208;SDS011;44006;52.028;4.696;2024-01-10T10:06:15;11.50;;;5.70;;
58208;SDS011;44006;52.028;4.696;2024-01-10T10:08:40;11.43;;;5.57;;
58208;SDS011;44006;52.028;4.696;2024-01-10T10:11:07;10.45;;;5.65;;
58208;SDS011;44006;52.028;4.696;2024-01-10T10:13:33;11.25;;;5.75;;
58208;SDS011;44006;52.028;4.696;2024-01-10T10:16:02;9.50;;;5.20;;
58208;SDS011;44006;52.028;4.696;2024-01-10T10:18:28;11.52;;;5.65;;
58208;SDS011;44006;52.028;4.696;2024-01-10T10:21:13;10.00;;;5.70;;
58208;SDS011;44006;52.028;4.696;2024-01-10T10:23:39;9.93;;;5.20;;
58208;SDS011;44006;52.028;4.696;2024-01-10T10:26:14;13.27;;;5.38;;
58208;SDS011;44006;52.028;4.696;2024-01-10T10:28:44;10.15;;;5.55;;
58208;SDS011;44006;52.028;4.696;2024-01-10T10:31:09;9.80;;;4.90;;
58208;SDS011;44006;52.028;4.696;2024-01-10T10:33:35;13.23;;;5.60;;
58208;SDS011;44006;52.028;4.696;2024-01-10T10:36:01;12.52;;;5.18;;
58208;SDS011;44006;52.028;4.696;2024-01-10T10:38:27;10.55;;;5.13;;
58208;SDS011;44006;52.028;4.696;2024-01-10T10:40:52;10.90;;;5.70;;
58208;SDS011;44006;52.028;4.696;2024-01-10T10:43:18;10.05;;;5.43;;
58208;SDS011;44006;52.028;4.696;2024-01-10T10:45:49;9.60;;;5.50;;
58208;SDS011;44006;52.028;4.696;2024-01-10T10:48:19;10.43;;;5.53;;
58208;SDS011;44006;52.028;4.696;2024-01-10T10:51:07;12.27;;;5.30;;
58208;SDS011;44006;52.028;4.696;2024-01-10T10:53:34;9.05;;;5.53;;
58208;SDS011;44006;52.028;4.696;2024-01-10T10:56:02;10.18;;;5.43;;
58208;SDS011;44006;52.028;4.696;2024-01-10T10:58:28;12.68;;;5.57;;
58208;SDS011;44006;52.028;4.696;2024-01-10T11:00:53;10.82;;;5.22;;
58208;SDS011;44006;52.028;4.696;2024-01-10T11:03:23;9.70;;;5.40;;
58208;SDS011;44006;52.028;4.696;2024-01-10T11:05:49;10.27;;;5.97;;
58208;SDS011;44006;52.028;4.696;2024-01-10T11:08:16;13.80;;;6.05;;
58208;SDS011;44006;52.028;4.696;2024-01-10T11:10:44;10.80;;;5.47;;
58208;SDS011;44006;52.028;4.696;2024-01-10T11:15:59;10.50;;;5.75;;
58208;SDS011;44006;52.028;4.696;2024-01-10T11:18:40;11.05;;;5.80;;
58208;SDS011;44006;52.028;4.696;2024-01-10T11:21:21;12.13;;;5.80;;
58208;SDS011;44006;52.028;4.696;2024-01-10T11:23:50;12.90;;;6.05;;
58208;SDS011;44006;52.028;4.696;2024-01-10T11:26:17;10.25;;;6.32;;
58208;SDS011;44006;52.028;4.696;2024-01-10T11:28:44;11.25;;;5.55;;
58208;SDS011;44006;52.028;4.696;2024-01-10T11:31:09;11.32;;;5.80;;
58208;SDS011;44006;52.028;4.696;2024-01-10T11:33:36;11.20;;;5.68;;
58208;SDS011;44006;52.028;4.696;2024-01-10T11:36:12;12.87;;;5.83;;
58208;SDS011;44006;52.028;4.696;2024-01-10T11:41:33;13.20;;;6.57;;
58208;SDS011;44006;52.028;4.696;2024-01-10T11:46:48;11.32;;;5.65;;
58208;SDS011;44006;52.028;4.696;2024-01-10T11:49:17;10.63;;;5.85;;
58208;SDS011;44006;52.028;4.696;2024-01-10T11:51:47;10.80;;;5.90;;
58208;SDS011;44006;52.028;4.696;2024-01-10T11:57:00;11.10;;;6.10;;
58208;SDS011;44006;52.028;4.696;2024-01-10T11:59:25;12.20;;;5.80;;
58208;SDS011;44006;52.028;4.696;2024-01-10T12:01:51;12.43;;;5.95;;
58208;SDS011;44006;52.028;4.696;2024-01-10T12:04:16;12.38;;;6.25;;
58208;SDS011;44006;52.028;4.696;2024-01-10T12:06:42;13.50;;;6.10;;
58208;SDS011;44006;52.028;4.696;2024-01-10T12:09:07;10.48;;;5.75;;
58208;SDS011;44006;52.028;4.696;2024-01-10T12:11:38;10.95;;;5.85;;
58208;SDS011;44006;52.028;4.696;2024-01-10T12:14:04;11.75;;;6.32;;
58208;SDS011;44006;52.028;4.696;2024-01-10T12:16:29;10.63;;;5.60;;
58208;SDS011;44006;52.028;4.696;2024-01-10T12:18:55;11.48;;;5.70;;
58208;SDS011;44006;52.028;4.696;2024-01-10T12:21:20;13.57;;;6.50;;
58208;SDS011;44006;52.028;4.696;2024-01-10T12:23:46;11.13;;;5.65;;
58208;SDS011;44006;52.028;4.696;2024-01-10T12:26:12;11.73;;;5.82;;
58208;SDS011;44006;52.028;4.696;2024-01-10T12:28:38;11.20;;;5.93;;
58208;SDS011;44006;52.028;4.696;2024-01-10T12:31:04;12.23;;;5.97;;
58208;SDS011;44006;52.028;4.696;2024-01-10T12:33:33;12.48;;;6.45;;
58208;SDS011;44006;52.028;4.696;2024-01-10T12:36:02;12.82;;;5.93;;
58208;SDS011;44006;52.028;4.696;2024-01-10T12:38:29;10.10;;;5.47;;
58208;SDS011;44006;52.028;4.696;2024-01-10T12:40:54;12.88;;;5.80;;
58208;SDS011;44006;52.028;4.696;2024-01-10T12:43:20;11.35;;;6.32;;
58208;SDS011;44006;52.028;4.696;2024-01-10T12:45:46;10.55;;;6.10;;
58208;SDS011;44006;52.028;4.696;2024-01-10T12:48:14;12.90;;;6.22;;
58208;SDS011;44006;52.028;4.696;2024-01-10T12:50:43;14.02;;;6.00;;
58208;SDS011;44006;52.028;4.696;2024-01-10T12:53:09;12.25;;;6.00;;
58208;SDS011;44006;52.028;4.696;2024-01-10T12:55:34;14.02;;;6.22;;
58208;SDS011;44006;52.028;4.696;2024-01-10T12:58:00;19.60;;;8.40;;
58208;SDS011;44006;52.028;4.696;2024-01-10T13:00:29;17.90;;;8.68;;
58208;SDS011;44006;52.028;4.696;2024-01-10T13:02:54;15.48;;;7.35;;
58208;SDS011;44006;52.028;4.696;2024-01-10T13:05:20;14.25;;;7.25;;
58208;SDS011;44006;52.028;4.696;2024-01-10T13:07:45;12.88;;;6.95;;
58208;SDS011;44006;52.028;4.696;2024-01-10T13:10:10;12.77;;;6.70;;
58208;SDS011;44006;52.028;4.696;2024-01-10T13:12:39;13.57;;;6.53;;
58208;SDS011;44006;52.028;4.696;2024-01-10T13:15:04;11.45;;;6.45;;
58208;SDS011;44006;52.028;4.696;2024-01-10T13:17:30;9.63;;;5.95;;
58208;SDS011;44006;52.028;4.696;2024-01-10T13:19:55;10.48;;;5.70;;
58208;SDS011;44006;52.028;4.696;2024-01-10T13:22:20;12.35;;;6.05;;
58208;SDS011;44006;52.028;4.696;2024-01-10T13:24:46;12.05;;;6.55;;
58208;SDS011;44006;52.028;4.696;2024-01-10T13:27:12;12.15;;;6.38;;
58208;SDS011;44006;52.028;4.696;2024-01-10T13:29:37;12.63;;;6.28;;
58208;SDS011;44006;52.028;4.696;2024-01-10T13:32:03;12.02;;;6.35;;
58208;SDS011;44006;52.028;4.696;2024-01-10T13:34:30;13.02;;;6.65;;
58208;SDS011;44006;52.028;4.696;2024-01-10T13:36:56;12.68;;;6.03;;
58208;SDS011;44006;52.028;4.696;2024-01-10T13:39:21;10.63;;;5.82;;
58208;SDS011;44006;52.028;4.696;2024-01-10T13:41:46;10.32;;;6.18;;
58208;SDS011;44006;52.028;4.696;2024-01-10T13:44:12;11.35;;;6.13;;
58208;SDS011;44006;52.028;4.696;2024-01-10T13:46:37;11.45;;;6.15;;
58208;SDS011;44006;52.028;4.696;2024-01-10T13:49:02;10.65;;;6.28;;
58208;SDS011;44006;52.028;4.696;2024-01-10T13:51:28;9.95;;;5.50;;
58208;SDS011;44006;52.028;4.696;2024-01-10T13:53:54;11.23;;;6.40;;
58208;SDS011;44006;52.028;4.696;2024-01-10T13:56:19;10.60;;;6.22;;
58208;SDS011;44006;52.028;4.696;2024-01-10T13:58:44;10.55;;;6.00;;
58208;SDS011;44006;52.028;4.696;2024-01-10T14:01:09;12.45;;;6.22;;
58208;SDS011;44006;52.028;4.696;2024-01-10T14:03:37;12.98;;;6.80;;
58208;SDS011;44006;52.028;4.696;2024-01-10T14:06:03;12.45;;;6.53;;
58208;SDS011;44006;52.028;4.696;2024-01-10T14:08:29;12.55;;;6.38;;
58208;SDS011;44006;52.028;4.696;2024-01-10T14:10:54;11.50;;;5.70;;
58208;SDS011;44006;52.028;4.696;2024-01-10T14:13:19;11.98;;;6.55;;
58208;SDS011;44006;52.028;4.696;2024-01-10T14:15:44;12.30;;;6.40;;
58208;SDS011;44006;52.028;4.696;2024-01-10T14:18:10;13.95;;;7.18;;
58208;SDS011;44006;52.028;4.696;2024-01-10T14:20:35;15.05;;;7.80;;
58208;SDS011;44006;52.028;4.696;2024-01-10T14:23:01;13.10;;;6.75;;
58208;SDS011;44006;52.028;4.696;2024-01-10T14:25:28;13.90;;;6.70;;
58208;SDS011;44006;52.028;4.696;2024-01-10T14:27:53;12.18;;;6.55;;
58208;SDS011;44006;52.028;4.696;2024-01-10T14:30:19;12.15;;;6.53;;
58208;SDS011;44006;52.028;4.696;2024-01-10T14:32:44;13.40;;;6.80;;
58208;SDS011;44006;52.028;4.696;2024-01-10T14:35:12;9.90;;;6.47;;
58208;SDS011;44006;52.028;4.696;2024-01-10T14:37:38;10.80;;;6.65;;
58208;SDS011;44006;52.028;4.696;2024-01-10T14:40:04;10.70;;;6.30;;
58208;SDS011;44006;52.028;4.696;2024-01-10T14:42:31;16.38;;;6.97;;
58208;SDS011;44006;52.028;4.696;2024-01-10T14:44:58;11.35;;;5.97;;